VIV4344 MMMY-MMPR
Flight info
| Callsign | VIV4344 |
|---|---|
| Flight time | N/A |
| Altitude | 36000 |
| Route | URTOB1A URTOB DCT OTEKA UT1 KEDMA KEDMA1B |
| Aircraft | A321/M-SDE3FGHIRWY/LB1 |
Departure
| Time | 2026-05-06 18:44 |
|---|---|
| Airport | Monterrey International Airport (MMMY) |
Arrival
| Time | N/A |
|---|---|
| Airport | Puerto Vallarta International Airport (MMPR) |
| Time | Latitude | Longitude | Altitude | Speed | Heading |
|---|---|---|---|---|---|
| 2026-05-06 18:25 | 25.78045 | -100.11816 | 1331 ft | 0 kts | 212° |
| 2026-05-06 18:34 | 25.78052 | -100.11811 | 1333 ft | 3 kts | 212° |
| 2026-05-06 18:34 | 25.78068 | -100.11800 | 1331 ft | 3 kts | 219° |
| 2026-05-06 18:34 | 25.78079 | -100.11786 | 1331 ft | 3 kts | 261° |
| 2026-05-06 18:35 | 25.78078 | -100.11766 | 1331 ft | 3 kts | 294° |
| 2026-05-06 18:35 | 25.78071 | -100.11751 | 1333 ft | 1 kts | 302° |
| 2026-05-06 18:35 | 25.78069 | -100.11748 | 1332 ft | 0 kts | 302° |
| 2026-05-06 18:38 | 25.78070 | -100.11749 | 1331 ft | 1 kts | 302° |
| 2026-05-06 18:38 | 25.78075 | -100.11759 | 1331 ft | 2 kts | 302° |
| 2026-05-06 18:38 | 25.78085 | -100.11776 | 1334 ft | 3 kts | 302° |
| 2026-05-06 18:39 | 25.78100 | -100.11802 | 1332 ft | 5 kts | 302° |
| 2026-05-06 18:39 | 25.78119 | -100.11836 | 1331 ft | 6 kts | 302° |
| 2026-05-06 18:39 | 25.78148 | -100.11867 | 1331 ft | 6 kts | 341° |
| 2026-05-06 18:40 | 25.78232 | -100.11830 | 1333 ft | 8 kts | 31° |
| 2026-05-06 18:40 | 25.78279 | -100.11797 | 1331 ft | 8 kts | 32° |
| 2026-05-06 18:40 | 25.78332 | -100.11762 | 1331 ft | 9 kts | 31° |
| 2026-05-06 18:40 | 25.78387 | -100.11717 | 1331 ft | 10 kts | 58° |
| 2026-05-06 18:41 | 25.78383 | -100.11664 | 1331 ft | 0 kts | 118° |
| 2026-05-06 18:43 | 25.78371 | -100.11639 | 1333 ft | 24 kts | 118° |
| 2026-05-06 18:43 | 25.78155 | -100.11245 | 1331 ft | 94 kts | 121° |
| 2026-05-06 18:43 | 25.77712 | -100.10436 | 1331 ft | 148 kts | 121° |
| 2026-05-06 18:44 | 25.77117 | -100.09350 | 1577 ft | 173 kts | 121° |
| 2026-05-06 18:44 | 25.76477 | -100.08183 | 2127 ft | 179 kts | 120° |
| 2026-05-06 18:44 | 25.75834 | -100.06930 | 2342 ft | 196 kts | 118° |
| 2026-05-06 18:44 | 25.75137 | -100.05532 | 2480 ft | 217 kts | 118° |
| 2026-05-06 18:45 | 25.74390 | -100.04035 | 2736 ft | 226 kts | 118° |
| 2026-05-06 18:45 | 25.73593 | -100.02447 | 2902 ft | 248 kts | 119° |
| 2026-05-06 18:45 | 25.72425 | -100.00960 | 3168 ft | 267 kts | 146° |
| 2026-05-06 18:45 | 25.70667 | -100.00245 | 3708 ft | 277 kts | 177° |
| 2026-05-06 18:46 | 25.68801 | -100.00617 | 4328 ft | 280 kts | 210° |
| 2026-05-06 18:46 | 25.67361 | -100.02014 | 4988 ft | 277 kts | 241° |
| 2026-05-06 18:46 | 25.66724 | -100.03997 | 5709 ft | 273 kts | 260° |
| 2026-05-06 18:46 | 25.66321 | -100.06060 | 6324 ft | 275 kts | 260° |
| 2026-05-06 18:47 | 25.65907 | -100.08135 | 6989 ft | 277 kts | 259° |
| 2026-05-06 18:47 | 25.65485 | -100.10213 | 7712 ft | 277 kts | 258° |
| 2026-05-06 18:47 | 25.65056 | -100.12302 | 8468 ft | 279 kts | 255° |
| 2026-05-06 18:47 | 25.64620 | -100.14406 | 9179 ft | 280 kts | 257° |
| 2026-05-06 18:48 | 25.64185 | -100.16519 | 9925 ft | 281 kts | 257° |
| 2026-05-06 18:48 | 25.63743 | -100.18668 | 10313 ft | 295 kts | 257° |
| 2026-05-06 18:48 | 25.63166 | -100.20930 | 10440 ft | 314 kts | 248° |
| 2026-05-06 18:48 | 25.62098 | -100.23097 | 10607 ft | 328 kts | 234° |
| 2026-05-06 18:49 | 25.60539 | -100.24970 | 11072 ft | 335 kts | 221° |
| 2026-05-06 18:49 | 25.58703 | -100.26578 | 11705 ft | 337 kts | 219° |
| 2026-05-06 18:49 | 25.58283 | -100.26943 | 11856 ft | 338 kts | 219° |
| 2026-05-06 18:50 | 25.56582 | -100.28471 | 12383 ft | 340 kts | 220° |
| 2026-05-06 18:50 | 25.54726 | -100.30102 | 12925 ft | 341 kts | 220° |
| 2026-05-06 18:50 | 25.52848 | -100.31723 | 13611 ft | 343 kts | 219° |
| 2026-05-06 18:50 | 25.50960 | -100.33344 | 14195 ft | 343 kts | 219° |
| 2026-05-06 18:51 | 25.49074 | -100.34963 | 14768 ft | 344 kts | 219° |
| 2026-05-06 18:51 | 25.47200 | -100.36571 | 15297 ft | 345 kts | 218° |
| 2026-05-06 18:51 | 25.45298 | -100.38209 | 15851 ft | 347 kts | 218° |
| 2026-05-06 18:51 | 25.43387 | -100.39860 | 16415 ft | 350 kts | 218° |
| 2026-05-06 18:52 | 25.41469 | -100.41519 | 17198 ft | 351 kts | 218° |
| 2026-05-06 18:52 | 25.39551 | -100.43200 | 17811 ft | 353 kts | 220° |
| 2026-05-06 18:52 | 25.37858 | -100.45185 | 18368 ft | 357 kts | 230° |
| 2026-05-06 18:52 | 25.36576 | -100.47548 | 18805 ft | 362 kts | 241° |
| 2026-05-06 18:53 | 25.35459 | -100.50051 | 19382 ft | 364 kts | 240° |
| 2026-05-06 18:53 | 25.34327 | -100.52555 | 19982 ft | 365 kts | 240° |
| 2026-05-06 18:53 | 25.33182 | -100.55068 | 20530 ft | 365 kts | 240° |
| 2026-05-06 18:53 | 25.32039 | -100.57570 | 20860 ft | 367 kts | 240° |
| 2026-05-06 18:54 | 25.30887 | -100.60099 | 21378 ft | 368 kts | 240° |
| 2026-05-06 18:54 | 25.29735 | -100.62633 | 21864 ft | 370 kts | 241° |
| 2026-05-06 18:54 | 25.28577 | -100.65173 | 22332 ft | 370 kts | 241° |
| 2026-05-06 18:54 | 25.27434 | -100.67682 | 22763 ft | 371 kts | 240° |
| 2026-05-06 18:55 | 25.26271 | -100.70235 | 23148 ft | 373 kts | 241° |
| 2026-05-06 18:55 | 25.25101 | -100.72798 | 23547 ft | 375 kts | 240° |
| 2026-05-06 18:55 | 25.23923 | -100.75372 | 23850 ft | 377 kts | 240° |
| 2026-05-06 18:55 | 25.22737 | -100.77963 | 24176 ft | 379 kts | 241° |
| 2026-05-06 18:56 | 25.21546 | -100.80562 | 24488 ft | 381 kts | 241° |
| 2026-05-06 18:56 | 25.20344 | -100.83179 | 24802 ft | 382 kts | 241° |
| 2026-05-06 18:56 | 25.19140 | -100.85803 | 25110 ft | 384 kts | 241° |
| 2026-05-06 18:56 | 25.17935 | -100.88438 | 25423 ft | 386 kts | 241° |
| 2026-05-06 18:57 | 25.16721 | -100.91089 | 25752 ft | 388 kts | 241° |
| 2026-05-06 18:57 | 25.15499 | -100.93752 | 26064 ft | 390 kts | 241° |
| 2026-05-06 18:57 | 25.14271 | -100.96429 | 26326 ft | 392 kts | 241° |
| 2026-05-06 18:57 | 25.13036 | -100.99122 | 26666 ft | 394 kts | 241° |
| 2026-05-06 18:58 | 25.11813 | -101.01790 | 26979 ft | 395 kts | 241° |
| 2026-05-06 18:58 | 25.10567 | -101.04506 | 27288 ft | 397 kts | 242° |
| 2026-05-06 18:58 | 25.09314 | -101.07230 | 27575 ft | 399 kts | 241° |
| 2026-05-06 18:58 | 25.08056 | -101.09964 | 27885 ft | 401 kts | 242° |
| 2026-05-06 18:59 | 25.06789 | -101.12711 | 28198 ft | 403 kts | 242° |
| 2026-05-06 18:59 | 25.05511 | -101.15475 | 28485 ft | 405 kts | 242° |
| 2026-05-06 18:59 | 25.04229 | -101.18251 | 28780 ft | 407 kts | 242° |
| 2026-05-06 18:59 | 25.02944 | -101.21040 | 29061 ft | 409 kts | 242° |
| 2026-05-06 19:00 | 25.01657 | -101.23833 | 29328 ft | 410 kts | 242° |
| 2026-05-06 19:00 | 25.00357 | -101.26644 | 29631 ft | 411 kts | 242° |
| 2026-05-06 19:00 | 24.99053 | -101.29457 | 29925 ft | 414 kts | 242° |
| 2026-05-06 19:00 | 24.98183 | -101.31331 | 30078 ft | 415 kts | 242° |
| 2026-05-06 19:01 | 24.96419 | -101.35137 | 30399 ft | 418 kts | 242° |
| 2026-05-06 19:01 | 24.95095 | -101.37998 | 30663 ft | 419 kts | 242° |
| 2026-05-06 19:01 | 24.93773 | -101.40863 | 30955 ft | 419 kts | 242° |
| 2026-05-06 19:01 | 24.92452 | -101.43722 | 31313 ft | 418 kts | 242° |
| 2026-05-06 19:02 | 24.91154 | -101.46528 | 31644 ft | 417 kts | 242° |
| 2026-05-06 19:02 | 24.89836 | -101.49366 | 32004 ft | 415 kts | 242° |
| 2026-05-06 19:02 | 24.88519 | -101.52193 | 32347 ft | 414 kts | 242° |
| 2026-05-06 19:02 | 24.87205 | -101.55013 | 32671 ft | 413 kts | 242° |
| 2026-05-06 19:03 | 24.85895 | -101.57824 | 33008 ft | 412 kts | 242° |
| 2026-05-06 19:03 | 24.84586 | -101.60629 | 33340 ft | 411 kts | 242° |
| 2026-05-06 19:03 | 24.83282 | -101.63424 | 33682 ft | 410 kts | 242° |
| 2026-05-06 19:03 | 24.81980 | -101.66217 | 33977 ft | 409 kts | 242° |
| 2026-05-06 19:04 | 24.80683 | -101.69002 | 34269 ft | 408 kts | 242° |
| 2026-05-06 19:04 | 24.79390 | -101.71779 | 34578 ft | 407 kts | 242° |
| 2026-05-06 19:04 | 24.78098 | -101.74551 | 34868 ft | 406 kts | 242° |
| 2026-05-06 19:04 | 24.76807 | -101.77316 | 35141 ft | 406 kts | 242° |
| 2026-05-06 19:05 | 24.75517 | -101.80070 | 35411 ft | 405 kts | 242° |
| 2026-05-06 19:05 | 24.74227 | -101.82822 | 35673 ft | 405 kts | 242° |
| 2026-05-06 19:05 | 24.72953 | -101.85542 | 35865 ft | 405 kts | 242° |
| 2026-05-06 19:06 | 24.70388 | -101.91033 | 35914 ft | 403 kts | 242° |
| 2026-05-06 19:06 | 24.67825 | -101.96498 | 35912 ft | 402 kts | 242° |
| 2026-05-06 19:07 | 24.65256 | -102.01958 | 35911 ft | 402 kts | 242° |
| 2026-05-06 19:07 | 24.62693 | -102.07405 | 35913 ft | 401 kts | 242° |